createdAt,value
2018-11-23T00:01:11.231Z,1.50
2018-11-23T00:03:38.184Z,1.60
2018-11-23T00:06:05.374Z,1.50
2018-11-23T00:08:32.299Z,1.60
2018-11-23T00:10:59.269Z,1.50
2018-11-23T00:13:26.196Z,1.30
2018-11-23T00:15:53.128Z,1.40
2018-11-23T00:18:20.087Z,1.40
2018-11-23T00:20:47.022Z,1.40
2018-11-23T00:23:13.963Z,1.40
2018-11-23T00:25:40.909Z,1.20
2018-11-23T00:28:07.859Z,1.20
2018-11-23T00:30:34.810Z,1.20
2018-11-23T00:33:01.772Z,1.20
2018-11-23T00:35:29.994Z,1.10
2018-11-23T00:37:56.930Z,1.10
2018-11-23T00:40:26.364Z,1.20
2018-11-23T00:42:53.603Z,1.20
2018-11-23T00:45:20.663Z,1.20
2018-11-23T00:47:48.339Z,1.20
2018-11-23T00:50:16.596Z,1.20
2018-11-23T00:52:44.252Z,1.10
2018-11-23T00:55:12.654Z,1.10
2018-11-23T00:57:39.695Z,1.10
2018-11-23T01:00:11.993Z,1.10
2018-11-23T01:02:38.946Z,1.20
2018-11-23T01:05:06.007Z,1.30
2018-11-23T01:07:32.941Z,1.40
2018-11-23T01:09:59.908Z,1.40
2018-11-23T01:12:26.868Z,1.50
2018-11-23T01:14:53.827Z,1.60
2018-11-23T01:17:20.792Z,1.50
2018-11-23T01:19:47.723Z,1.50
2018-11-23T01:22:14.657Z,1.40
2018-11-23T01:24:41.610Z,1.30
2018-11-23T01:27:08.546Z,1.20
2018-11-23T01:29:35.490Z,1.30
2018-11-23T01:32:02.436Z,1.40
2018-11-23T01:34:29.364Z,1.40
2018-11-23T01:36:56.287Z,1.50
2018-11-23T01:39:23.244Z,1.60
2018-11-23T01:41:50.183Z,1.60
2018-11-23T01:44:17.100Z,1.70
2018-11-23T01:46:44.083Z,1.60
2018-11-23T01:49:12.000Z,1.60
2018-11-23T01:51:38.231Z,1.50
2018-11-23T01:54:05.196Z,1.40
2018-11-23T01:56:32.124Z,1.30
2018-11-23T01:58:59.052Z,1.40
2018-11-23T02:01:26.013Z,1.30
2018-11-23T02:03:53.044Z,1.20
2018-11-23T02:06:19.967Z,1.00
2018-11-23T02:08:47.331Z,1.20
2018-11-23T02:11:14.246Z,1.30
2018-11-23T02:13:41.186Z,1.40
2018-11-23T02:16:08.125Z,1.40
2018-11-23T02:18:35.079Z,1.30
2018-11-23T02:21:02.010Z,1.30
2018-11-23T02:23:28.966Z,1.20
2018-11-23T02:25:55.897Z,1.30
2018-11-23T02:28:22.824Z,1.30
2018-11-23T02:30:50.616Z,1.20
2018-11-23T02:33:17.636Z,1.20
2018-11-23T02:35:44.568Z,1.30
2018-11-23T02:38:11.510Z,1.40
2018-11-23T02:40:38.434Z,1.50
2018-11-23T02:43:05.372Z,1.50
2018-11-23T02:45:32.351Z,1.40
2018-11-23T02:47:59.275Z,1.30
2018-11-23T02:50:26.210Z,1.30
2018-11-23T02:52:53.472Z,1.10
2018-11-23T02:55:20.846Z,1.10
2018-11-23T02:57:47.781Z,0.80
2018-11-23T03:00:17.005Z,0.80
2018-11-23T03:02:44.053Z,0.80
2018-11-23T03:05:13.339Z,0.70
2018-11-23T03:07:40.649Z,0.70
2018-11-23T03:10:08.987Z,0.70
2018-11-23T03:12:35.973Z,0.80
2018-11-23T03:15:02.922Z,0.80
2018-11-23T03:17:29.864Z,0.80
2018-11-23T03:19:56.814Z,0.90
2018-11-23T03:22:23.754Z,0.90
2018-11-23T03:24:50.685Z,1.00
2018-11-23T03:27:17.611Z,1.10
2018-11-23T03:29:44.578Z,1.20
2018-11-23T03:32:11.526Z,1.00
2018-11-23T03:34:38.447Z,1.00
2018-11-23T03:37:05.410Z,0.90
2018-11-23T03:39:34.217Z,0.70
2018-11-23T03:41:59.270Z,0.60
2018-11-23T03:44:26.221Z,0.40
2018-11-23T03:46:53.155Z,0.30
2018-11-23T03:49:20.098Z,0.30
2018-11-23T03:51:47.050Z,0.30
2018-11-23T03:54:14.316Z,0.40
2018-11-23T03:56:41.255Z,0.40
2018-11-23T03:59:08.195Z,0.50
2018-11-23T04:01:35.133Z,0.50
2018-11-23T04:04:02.075Z,0.50
2018-11-23T04:06:29.022Z,0.50
2018-11-23T04:08:55.970Z,0.50
2018-11-23T04:11:22.903Z,0.50
2018-11-23T04:13:50.009Z,0.60
2018-11-23T04:16:16.943Z,0.70
2018-11-23T04:18:43.874Z,0.70
2018-11-23T04:21:10.846Z,0.80
2018-11-23T04:23:37.775Z,0.80
2018-11-23T04:26:04.702Z,0.80
2018-11-23T04:28:31.673Z,0.90
2018-11-23T04:30:58.606Z,0.90
2018-11-23T04:33:26.447Z,1.10
2018-11-23T04:35:53.518Z,1.10
2018-11-23T04:38:20.454Z,1.00
2018-11-23T04:40:47.412Z,1.10
2018-11-23T04:43:14.384Z,1.20
2018-11-23T04:45:41.354Z,1.30
2018-11-23T04:48:08.312Z,1.10
2018-11-23T04:50:35.277Z,1.20
2018-11-23T04:53:02.223Z,1.20
2018-11-23T04:55:29.507Z,1.20
2018-11-23T04:57:56.483Z,1.10
2018-11-23T05:00:23.421Z,1.00
2018-11-23T05:02:50.376Z,1.00
2018-11-23T05:05:17.344Z,0.80
2018-11-23T05:07:45.565Z,0.70
2018-11-23T05:10:13.719Z,0.40
2018-11-23T05:12:40.677Z,0.40
2018-11-23T05:15:09.361Z,0.50
2018-11-23T05:17:36.706Z,0.60
2018-11-23T05:20:04.472Z,0.50
2018-11-23T05:22:31.404Z,0.40
2018-11-23T05:24:58.353Z,0.50
2018-11-23T05:27:25.310Z,0.60
2018-11-23T05:29:52.251Z,0.60
2018-11-23T05:32:19.275Z,0.60
2018-11-23T05:34:46.186Z,0.70
2018-11-23T05:37:13.147Z,0.80
2018-11-23T05:39:40.098Z,1.00
2018-11-23T05:42:07.094Z,1.00
2018-11-23T05:44:34.053Z,1.00
2018-11-23T05:47:01.003Z,1.00
2018-11-23T05:49:27.963Z,1.00
2018-11-23T05:51:54.938Z,1.10
2018-11-23T05:54:21.879Z,1.10
2018-11-23T05:56:49.203Z,0.90
2018-11-23T05:59:16.176Z,0.70
2018-11-23T06:01:43.137Z,0.60
2018-11-23T06:04:10.116Z,0.50
2018-11-23T06:06:42.223Z,0.50
2018-11-23T06:09:05.818Z,0.50
2018-11-23T06:11:32.796Z,0.50
2018-11-23T06:13:59.768Z,0.50
2018-11-23T06:16:26.715Z,0.50
2018-11-23T06:18:53.973Z,0.60
2018-11-23T06:21:20.911Z,0.70
2018-11-23T06:23:47.844Z,0.70
2018-11-23T06:26:22.307Z,0.80
2018-11-23T06:28:49.339Z,0.80
2018-11-23T06:31:16.274Z,0.70
2018-11-23T06:33:44.689Z,0.70
2018-11-23T06:36:11.639Z,0.90
2018-11-23T06:38:38.634Z,0.90
2018-11-23T06:41:10.517Z,1.00
2018-11-23T06:43:33.637Z,1.00
2018-11-23T06:46:01.682Z,1.00
2018-11-23T06:48:28.652Z,1.00
2018-11-23T06:50:55.998Z,1.10
2018-11-23T06:53:22.951Z,1.10
2018-11-23T06:55:50.039Z,1.20
2018-11-23T06:58:17.314Z,1.10
2018-11-23T07:00:44.264Z,1.10
2018-11-23T07:03:11.235Z,1.10
2018-11-23T07:05:38.175Z,1.10
2018-11-23T07:08:05.873Z,1.20
2018-11-23T07:10:32.836Z,1.10
2018-11-23T07:12:59.803Z,0.80
2018-11-23T07:15:26.775Z,0.70
2018-11-23T07:17:53.735Z,0.60
2018-11-23T07:20:20.695Z,0.70
2018-11-23T07:22:47.636Z,0.70
2018-11-23T07:25:14.630Z,0.80
2018-11-23T07:27:42.235Z,0.80
2018-11-23T07:30:18.220Z,0.80
2018-11-23T07:32:45.360Z,0.90
2018-11-23T07:35:13.029Z,1.10
2018-11-23T07:37:39.988Z,1.10
2018-11-23T07:40:19.708Z,1.20
2018-11-23T07:42:46.657Z,1.20
2018-11-23T07:45:13.610Z,1.20
2018-11-23T07:47:40.581Z,1.20
2018-11-23T07:50:08.427Z,1.20
2018-11-23T07:52:35.478Z,1.30
2018-11-23T07:55:02.415Z,1.30
2018-11-23T07:57:29.447Z,1.30
2018-11-23T07:59:57.000Z,1.40
2018-11-23T08:02:23.912Z,1.40
2018-11-23T08:04:50.923Z,1.40
2018-11-23T08:07:17.859Z,1.40
2018-11-23T08:09:44.834Z,1.40
2018-11-23T08:12:11.757Z,1.50
2018-11-23T08:14:38.688Z,1.50
2018-11-23T08:17:05.756Z,1.60
2018-11-23T08:19:32.719Z,1.70
2018-11-23T08:21:59.680Z,1.90
2018-11-23T08:24:27.206Z,2.00
2018-11-23T08:26:53.970Z,2.30
2018-11-23T08:29:20.999Z,2.70
2018-11-23T08:31:47.948Z,3.30
2018-11-23T08:34:14.912Z,3.80
2018-11-23T08:36:41.862Z,4.30
2018-11-23T08:39:09.635Z,4.50
2018-11-23T08:41:36.677Z,4.70
2018-11-23T08:44:03.679Z,4.80
2018-11-23T08:46:30.624Z,4.80
2018-11-23T08:48:57.595Z,5.00
2018-11-23T08:51:24.535Z,5.10
2018-11-23T08:53:51.524Z,5.50
2018-11-23T08:56:18.611Z,5.70
2018-11-23T08:58:45.550Z,6.30
2018-11-23T09:01:12.877Z,6.40
2018-11-23T09:03:39.823Z,6.40
2018-11-23T09:06:06.757Z,6.30
2018-11-23T09:08:33.703Z,6.10
2018-11-23T09:11:00.755Z,5.60
2018-11-23T09:13:27.863Z,5.50
2018-11-23T09:15:54.836Z,5.60
2018-11-23T09:18:21.809Z,5.50
2018-11-23T09:20:48.902Z,5.30
2018-11-23T09:23:15.862Z,5.40
2018-11-23T09:25:42.873Z,5.60
2018-11-23T09:28:09.910Z,5.50
2018-11-23T09:30:36.868Z,5.50
2018-11-23T09:33:03.857Z,5.60
2018-11-23T09:35:30.851Z,5.30
2018-11-23T09:37:58.002Z,5.20
2018-11-23T09:40:26.400Z,5.40
2018-11-23T09:42:54.027Z,5.40
2018-11-23T09:45:22.588Z,5.30
2018-11-23T09:47:51.756Z,5.20
2018-11-23T09:50:20.171Z,5.20
2018-11-23T09:52:48.527Z,5.20
2018-11-23T09:55:15.874Z,5.10
2018-11-23T09:57:43.019Z,4.80
2018-11-23T10:00:13.439Z,4.90
2018-11-23T10:02:41.548Z,4.90
2018-11-23T10:05:09.641Z,4.90
2018-11-23T10:07:36.713Z,5.00
2018-11-23T10:10:05.011Z,5.00
2018-11-23T10:12:31.951Z,5.00
2018-11-23T10:14:59.051Z,5.00
2018-11-23T10:17:26.020Z,4.90
2018-11-23T10:19:58.037Z,5.00
2018-11-23T10:22:19.921Z,5.00
2018-11-23T10:24:46.905Z,5.10
2018-11-23T10:27:13.961Z,5.20
2018-11-23T10:29:40.906Z,5.20
2018-11-23T10:32:08.055Z,5.20
2018-11-23T10:34:35.019Z,5.20
2018-11-23T10:37:01.959Z,5.30
2018-11-23T10:39:28.923Z,5.40
2018-11-23T10:41:55.916Z,5.40
2018-11-23T10:44:22.852Z,5.50
2018-11-23T10:46:49.804Z,5.50
2018-11-23T10:49:16.756Z,5.60
2018-11-23T10:51:43.934Z,5.70
2018-11-23T10:54:11.065Z,5.70
2018-11-23T10:56:37.995Z,6.00
2018-11-23T10:59:05.516Z,6.10
2018-11-23T11:01:38.195Z,6.10
2018-11-23T11:04:11.519Z,6.20
2018-11-23T11:06:44.415Z,6.30
2018-11-23T11:09:11.600Z,6.40
2018-11-23T11:11:39.137Z,6.50
2018-11-23T11:14:06.728Z,6.40
2018-11-23T11:16:34.411Z,6.60
2018-11-23T11:19:01.616Z,6.60
2018-11-23T11:21:28.800Z,6.60
2018-11-23T11:23:55.880Z,6.70
2018-11-23T11:26:22.823Z,6.80
2018-11-23T11:28:49.831Z,6.90
2018-11-23T11:31:16.927Z,7.00
2018-11-23T11:33:43.991Z,7.10
2018-11-23T11:36:10.990Z,7.10
2018-11-23T11:38:38.093Z,7.20
2018-11-23T11:41:05.157Z,7.20
2018-11-23T11:43:32.094Z,7.30
2018-11-23T11:45:59.133Z,7.30
2018-11-23T11:48:26.228Z,7.30
2018-11-23T11:50:53.421Z,7.40
2018-11-23T11:53:20.527Z,7.50
2018-11-23T11:55:47.673Z,7.50
2018-11-23T11:58:14.868Z,7.50
2018-11-23T12:00:42.016Z,7.60
2018-11-23T12:03:09.188Z,7.60
2018-11-23T12:05:36.661Z,7.70
2018-11-23T12:08:04.335Z,7.90
2018-11-23T12:10:31.502Z,7.90
2018-11-23T12:12:58.503Z,8.10
2018-11-23T12:15:25.539Z,8.10
2018-11-23T12:17:52.650Z,8.20
2018-11-23T12:20:21.984Z,8.20
2018-11-23T12:22:49.381Z,8.20
2018-11-23T12:25:16.856Z,8.30
2018-11-23T12:27:43.839Z,8.40
2018-11-23T12:30:14.033Z,8.40
2018-11-23T12:32:41.746Z,8.40
2018-11-23T12:35:10.562Z,8.50
2018-11-23T12:37:37.555Z,8.40
2018-11-23T12:40:06.002Z,8.60
2018-11-23T12:42:32.979Z,8.60
2018-11-23T12:44:59.970Z,8.70
2018-11-23T12:47:26.894Z,8.90
2018-11-23T12:49:53.923Z,9.00
2018-11-23T12:52:20.874Z,9.00
2018-11-23T12:54:47.846Z,9.10
2018-11-23T12:57:14.810Z,9.00
2018-11-23T12:59:41.778Z,8.80
2018-11-23T13:02:08.804Z,8.90
2018-11-23T13:04:35.918Z,9.00
2018-11-23T13:07:03.555Z,9.10
2018-11-23T13:09:30.552Z,9.10
2018-11-23T13:11:57.531Z,9.10
2018-11-23T13:14:24.465Z,9.10
2018-11-23T13:16:51.436Z,9.10
2018-11-23T13:19:18.409Z,9.10
2018-11-23T13:21:45.373Z,9.00
2018-11-23T13:24:12.305Z,9.00
2018-11-23T13:26:39.263Z,8.80
2018-11-23T13:29:15.570Z,8.70
2018-11-23T13:31:33.163Z,8.60
2018-11-23T13:34:00.123Z,8.60
2018-11-23T13:36:27.051Z,8.50
2018-11-23T13:38:53.988Z,8.50
2018-11-23T13:41:20.960Z,8.40
2018-11-23T13:43:47.918Z,8.40
2018-11-23T13:46:14.881Z,8.40
2018-11-23T13:48:41.840Z,8.40
2018-11-23T13:51:08.763Z,8.40
2018-11-23T13:53:35.698Z,8.50
2018-11-23T13:56:02.659Z,8.50
2018-11-23T13:58:29.598Z,8.50
2018-11-23T14:00:56.545Z,8.50
2018-11-23T14:03:23.559Z,8.50
2018-11-23T14:05:50.543Z,8.50
2018-11-23T14:08:17.936Z,8.40
2018-11-23T14:10:44.939Z,8.50
2018-11-23T14:13:11.952Z,8.40
2018-11-23T14:15:39.015Z,8.40
2018-11-23T14:18:05.970Z,8.40
2018-11-23T14:20:32.933Z,8.40
2018-11-23T14:22:59.937Z,8.30
2018-11-23T14:25:28.431Z,8.30
2018-11-23T14:27:55.533Z,8.20
2018-11-23T14:30:24.047Z,8.20
2018-11-23T14:32:51.155Z,8.30
2018-11-23T14:35:21.519Z,8.30
2018-11-23T14:37:49.380Z,8.20
2018-11-23T14:40:16.639Z,8.20
2018-11-23T14:42:44.619Z,8.30
2018-11-23T14:45:15.052Z,8.30
2018-11-23T14:47:42.411Z,8.30
2018-11-23T14:50:13.379Z,8.10
2018-11-23T14:52:40.447Z,8.00
2018-11-23T14:55:07.894Z,8.00
2018-11-23T14:57:35.239Z,7.80
2018-11-23T15:00:03.166Z,7.80
2018-11-23T15:02:30.139Z,7.70
2018-11-23T15:04:57.077Z,7.70
2018-11-23T15:07:24.002Z,7.60
2018-11-23T15:09:51.255Z,7.60
2018-11-23T15:12:18.198Z,7.60
2018-11-23T15:14:45.759Z,7.60
2018-11-23T15:17:12.705Z,7.40
2018-11-23T15:19:39.642Z,7.30
2018-11-23T15:22:06.566Z,7.20
2018-11-23T15:24:33.524Z,7.30
2018-11-23T15:27:00.447Z,7.20
2018-11-23T15:29:27.390Z,7.10
2018-11-23T15:31:54.387Z,7.00
2018-11-23T15:34:21.335Z,7.00
2018-11-23T15:36:48.364Z,7.00
2018-11-23T15:39:15.322Z,7.00
2018-11-23T15:41:42.267Z,6.80
2018-11-23T15:44:09.202Z,6.70
2018-11-23T15:46:36.160Z,6.70
2018-11-23T15:49:03.101Z,6.60
2018-11-23T15:51:30.086Z,6.50
2018-11-23T15:53:57.051Z,6.50
2018-11-23T15:56:23.980Z,6.30
2018-11-23T15:58:50.963Z,6.30
2018-11-23T16:01:17.913Z,6.20
2018-11-23T16:03:44.847Z,6.20
2018-11-23T16:06:11.792Z,6.10
2018-11-23T16:08:38.756Z,6.20
2018-11-23T16:11:06.167Z,6.20
2018-11-23T16:13:33.127Z,6.30
2018-11-23T16:16:00.071Z,6.20
2018-11-23T16:18:27.026Z,5.90
2018-11-23T16:20:53.971Z,5.80
2018-11-23T16:23:21.450Z,5.60
2018-11-23T16:25:49.235Z,5.60
2018-11-23T16:28:16.214Z,5.60
2018-11-23T16:30:46.604Z,5.60
2018-11-23T16:33:15.166Z,5.50
2018-11-23T16:35:42.518Z,5.50
2018-11-23T16:38:11.131Z,5.40
2018-11-23T16:40:39.699Z,5.40
2018-11-23T16:43:08.071Z,5.30
2018-11-23T16:45:35.774Z,5.40
2018-11-23T16:48:04.128Z,5.30
2018-11-23T16:50:31.242Z,5.50
2018-11-23T16:52:58.296Z,5.50
2018-11-23T16:55:25.691Z,5.50
2018-11-23T16:57:54.281Z,5.50
2018-11-23T17:00:22.568Z,5.60
2018-11-23T17:02:49.503Z,5.50
2018-11-23T17:05:18.187Z,5.50
2018-11-23T17:07:45.159Z,5.40
2018-11-23T17:10:13.313Z,5.40
2018-11-23T17:12:41.078Z,5.30
2018-11-23T17:15:10.087Z,5.20
2018-11-23T17:17:37.110Z,5.20
2018-11-23T17:20:04.507Z,5.20
2018-11-23T17:22:31.454Z,5.30
2018-11-23T17:24:58.415Z,5.20
2018-11-23T17:27:25.361Z,5.20
2018-11-23T17:29:52.323Z,5.10
2018-11-23T17:32:19.632Z,5.00
2018-11-23T17:34:46.563Z,5.10
2018-11-23T17:37:13.515Z,5.00
2018-11-23T17:39:40.456Z,5.10
2018-11-23T17:42:07.404Z,5.30
2018-11-23T17:44:34.352Z,5.30
2018-11-23T17:47:01.282Z,5.20
2018-11-23T17:49:28.225Z,5.10
2018-11-23T17:51:55.226Z,5.10
2018-11-23T17:54:22.156Z,5.10
2018-11-23T17:56:49.088Z,4.90
2018-11-23T17:59:16.039Z,4.80
2018-11-23T18:01:43.003Z,5.00
2018-11-23T18:04:09.938Z,4.90
2018-11-23T18:06:36.888Z,4.90
2018-11-23T18:09:05.830Z,4.90
2018-11-23T18:11:32.780Z,4.90
2018-11-23T18:14:00.355Z,4.90
2018-11-23T18:16:27.293Z,4.80
2018-11-23T18:18:54.242Z,4.80
2018-11-23T18:21:21.212Z,4.80
2018-11-23T18:23:48.180Z,4.80
2018-11-23T18:26:15.123Z,4.80
2018-11-23T18:28:42.087Z,5.00
2018-11-23T18:31:09.027Z,5.10
2018-11-23T18:33:35.951Z,5.10
2018-11-23T18:36:02.896Z,5.10
2018-11-23T18:38:29.830Z,5.20
2018-11-23T18:40:56.764Z,5.20
2018-11-23T18:43:23.711Z,5.10
2018-11-23T18:45:50.650Z,5.10
2018-11-23T18:48:17.581Z,5.00
2018-11-23T18:50:44.555Z,5.10
2018-11-23T18:53:11.496Z,5.10
2018-11-23T18:55:38.443Z,5.20
2018-11-23T18:58:05.423Z,5.20
2018-11-23T19:00:32.442Z,5.30
2018-11-23T19:02:59.389Z,5.20
2018-11-23T19:05:26.927Z,5.30
2018-11-23T19:07:53.895Z,5.30
2018-11-23T19:10:20.827Z,5.30
2018-11-23T19:12:47.795Z,5.30
2018-11-23T19:15:17.546Z,5.30
2018-11-23T19:17:43.904Z,5.30
2018-11-23T19:20:13.007Z,5.30
2018-11-23T19:22:40.854Z,5.40
2018-11-23T19:25:07.801Z,5.30
2018-11-23T19:27:34.748Z,5.40
2018-11-23T19:30:01.683Z,5.40
2018-11-23T19:32:28.618Z,5.40
2018-11-23T19:34:55.570Z,5.40
2018-11-23T19:37:22.517Z,5.40
2018-11-23T19:39:49.519Z,5.30
2018-11-23T19:42:16.485Z,5.40
2018-11-23T19:44:43.420Z,5.30
2018-11-23T19:47:10.355Z,5.30
2018-11-23T19:49:37.325Z,5.30
2018-11-23T19:52:04.631Z,5.30
2018-11-23T19:54:31.566Z,5.40
2018-11-23T19:56:58.523Z,5.40
2018-11-23T19:59:25.454Z,5.30
2018-11-23T20:01:52.418Z,5.20
2018-11-23T20:04:19.370Z,5.20
2018-11-23T20:06:46.325Z,5.00
2018-11-23T20:09:13.298Z,5.00
2018-11-23T20:11:40.390Z,5.00
2018-11-23T20:14:07.349Z,5.10
2018-11-23T20:16:34.806Z,5.10
2018-11-23T20:19:01.814Z,5.10
2018-11-23T20:21:28.825Z,5.20
2018-11-23T20:23:55.827Z,5.20
2018-11-23T20:26:22.794Z,5.20
2018-11-23T20:28:49.743Z,5.20
2018-11-23T20:31:16.686Z,5.10
2018-11-23T20:33:43.631Z,5.20
2018-11-23T20:36:10.566Z,5.20
2018-11-23T20:38:37.495Z,5.20
2018-11-23T20:41:04.476Z,5.20
2018-11-23T20:43:31.434Z,5.20
2018-11-23T20:45:58.362Z,5.20
2018-11-23T20:48:25.370Z,5.30
2018-11-23T20:50:52.319Z,5.20
2018-11-23T20:53:19.701Z,5.30
2018-11-23T20:55:46.664Z,5.20
2018-11-23T20:58:13.633Z,5.30
2018-11-23T21:00:40.612Z,5.30
2018-11-23T21:03:07.569Z,5.30
2018-11-23T21:05:34.502Z,5.30
2018-11-23T21:08:01.463Z,5.30
2018-11-23T21:10:28.438Z,5.30
2018-11-23T21:12:55.377Z,5.20
2018-11-23T21:15:31.570Z,5.20
2018-11-23T21:18:02.237Z,5.10
2018-11-23T21:20:29.283Z,5.20
2018-11-23T21:22:56.246Z,5.20
2018-11-23T21:25:23.184Z,5.20
2018-11-23T21:27:50.141Z,5.20
2018-11-23T21:30:18.643Z,5.20
2018-11-23T21:32:45.673Z,5.10
2018-11-23T21:35:12.712Z,5.00
2018-11-23T21:37:39.677Z,4.90
2018-11-23T21:40:08.248Z,4.80
2018-11-23T21:42:35.227Z,4.80
2018-11-23T21:45:02.195Z,4.90
2018-11-23T21:47:29.144Z,4.90
2018-11-23T21:49:56.086Z,4.90
2018-11-23T21:52:23.056Z,4.90
2018-11-23T21:54:49.988Z,4.80
2018-11-23T21:57:16.913Z,4.70
2018-11-23T21:59:43.866Z,4.70
2018-11-23T22:02:10.808Z,4.80
2018-11-23T22:04:37.779Z,4.90
2018-11-23T22:07:05.197Z,4.90
2018-11-23T22:09:32.153Z,4.90
2018-11-23T22:11:59.101Z,5.00
2018-11-23T22:14:26.051Z,5.00
2018-11-23T22:16:53.023Z,5.00
2018-11-23T22:19:20.559Z,4.80
2018-11-23T22:21:47.536Z,4.90
2018-11-23T22:24:14.471Z,4.90
2018-11-23T22:26:41.418Z,4.80
2018-11-23T22:29:08.372Z,4.70
2018-11-23T22:31:35.320Z,4.70
2018-11-23T22:34:02.271Z,4.80
2018-11-23T22:36:29.251Z,4.80
2018-11-23T22:38:56.183Z,4.80
2018-11-23T22:41:23.130Z,4.60
2018-11-23T22:43:50.079Z,4.50
2018-11-23T22:46:17.106Z,4.50
2018-11-23T22:48:44.056Z,4.60
2018-11-23T22:51:11.005Z,4.60
2018-11-23T22:53:38.183Z,4.60
2018-11-23T22:56:05.139Z,4.60
2018-11-23T22:58:32.091Z,4.70
2018-11-23T23:01:02.271Z,4.70
2018-11-23T23:03:29.838Z,4.70
2018-11-23T23:05:56.847Z,4.60
2018-11-23T23:08:23.779Z,4.60
2018-11-23T23:10:50.933Z,4.50
2018-11-23T23:13:18.116Z,4.50
2018-11-23T23:15:45.048Z,4.60
2018-11-23T23:18:11.993Z,4.60
2018-11-23T23:20:39.678Z,4.60
2018-11-23T23:23:06.619Z,4.50
2018-11-23T23:25:33.575Z,4.40
2018-11-23T23:28:00.518Z,4.40
2018-11-23T23:30:27.480Z,4.50
2018-11-23T23:32:54.436Z,4.60
2018-11-23T23:35:21.404Z,4.70
2018-11-23T23:37:48.397Z,4.70
2018-11-23T23:40:16.982Z,4.80
2018-11-23T23:42:44.112Z,4.80
2018-11-23T23:45:12.953Z,4.80
2018-11-23T23:47:39.906Z,4.80
2018-11-23T23:50:08.741Z,4.80
2018-11-23T23:52:35.751Z,4.90
2018-11-23T23:55:02.787Z,5.00
2018-11-23T23:57:29.787Z,5.00
2018-11-23T23:59:56.730Z,4.80
